Time;durP1;ratioP1;P1;durP2;ratioP2;P2;SDS_P1;SDS_P2;PMS_P1;PMS_P2;Temp;Humidity;BMP_temperature;BMP_pressure;BME280_temperature;BME280_humidity;BME280_pressure;Samples;Min_cycle;Max_cycle;Signal;HPM_P1;HPM_P2
2022/08/23 00:01:49;;;;;;;12.77;10.35;;;;;;;20.08;100.00;93956.97;5051997;28;20193;-64
2022/08/23 00:04:18;;;;;;;12.15;10.15;;;;;;;20.03;100.00;93958.59;5070218;22;20245;-64
2022/08/23 00:06:46;;;;;;;12.77;10.57;;;;;;;20.08;100.00;93971.66;5052013;28;20690;-64
2022/08/23 00:09:12;;;;;;;13.80;10.23;;;;;;;20.13;100.00;93968.47;5051714;28;20303;-65
2022/08/23 00:11:42;;;;;;;13.27;9.98;;;;;;;20.01;100.00;93960.59;5051811;28;20202;-65
2022/08/23 00:14:14;;;;;;;16.42;10.57;;;;;;;19.98;100.00;93961.78;5039455;23;20217;-64
2022/08/23 00:16:40;;;;;;;13.45;11.85;;;;;;;20.05;100.00;93954.00;5057469;22;20312;-62
2022/08/23 00:19:08;;;;;;;14.60;10.73;;;;;;;20.12;100.00;93951.41;5057598;22;20267;-62
2022/08/23 00:21:36;;;;;;;16.55;12.35;;;;;;;20.26;100.00;93956.31;5051269;28;20288;-62
2022/08/23 00:24:02;;;;;;;17.85;12.18;;;;;;;20.16;100.00;93952.59;5051508;28;20268;-62
2022/08/23 00:26:48;;;;;;;15.95;11.68;;;;;;;19.93;100.00;93959.03;5051422;28;20276;-63
2022/08/23 00:29:15;;;;;;;20.05;12.38;;;;;;;19.79;100.00;93947.16;5061069;22;20217;-60
2022/08/23 00:31:40;;;;;;;17.77;11.77;;;;;;;19.87;100.00;93952.09;5033981;28;20605;-61
2022/08/23 00:34:06;;;;;;;16.65;13.10;;;;;;;19.90;100.00;93956.84;5051362;28;20713;-61
2022/08/23 00:36:32;;;;;;;16.88;12.57;;;;;;;19.96;100.00;93957.81;5051533;28;20249;-61
2022/08/23 00:38:57;;;;;;;15.50;11.93;;;;;;;19.90;100.00;93949.09;5057384;22;20225;-61
2022/08/23 00:41:23;;;;;;;18.15;13.75;;;;;;;20.03;100.00;93959.38;5033456;28;20732;-61
2022/08/23 00:50:15;;;;;;;20.75;13.35;;;;;;;20.09;100.00;93943.09;4970538;28;20768;-67
2022/08/23 00:52:55;;;;;;;20.38;13.68;;;;;;;20.01;100.00;93958.81;5021614;28;20219;-61
2022/08/23 00:55:20;;;;;;;20.35;14.05;;;;;;;19.95;100.00;93962.19;5051515;28;20209;-61
2022/08/23 00:57:46;;;;;;;19.20;13.25;;;;;;;20.03;100.00;93956.81;5051385;28;20542;-61
2022/08/23 01:00:12;;;;;;;18.17;14.02;;;;;;;20.03;100.00;93961.97;5050926;28;20217;-61
2022/08/23 01:02:41;;;;;;;17.67;14.18;;;;;;;20.07;100.00;93959.75;5051036;28;20672;-61
2022/08/23 01:05:07;;;;;;;19.75;13.20;;;;;;;20.10;100.00;93964.50;5032137;28;20213;-60
2022/08/23 01:07:54;;;;;;;15.13;13.18;;;;;;;20.23;100.00;93961.13;5032778;28;20232;-61
2022/08/23 01:10:31;;;;;;;24.25;14.75;;;;;;;20.23;100.00;93964.50;5032933;28;20217;-66
2022/08/23 01:13:35;;;;;;;24.20;15.10;;;;;;;20.34;100.00;93981.91;5050911;28;20181;-67
2022/08/23 01:16:17;;;;;;;20.05;14.45;;;;;;;20.27;100.00;93973.41;5027194;28;20197;-67
2022/08/23 01:18:43;;;;;;;21.02;14.43;;;;;;;20.23;100.00;93981.75;5032883;28;20213;-69
2022/08/23 01:21:20;;;;;;;22.67;14.57;;;;;;;20.20;100.00;93974.44;5051113;28;20314;-67
2022/08/23 01:23:54;;;;;;;23.65;15.20;;;;;;;20.08;100.00;93967.28;5049354;28;20248;-66
2022/08/23 01:26:21;;;;;;;22.83;14.15;;;;;;;20.01;100.00;93982.03;5033041;28;20279;-67
2022/08/23 01:28:47;;;;;;;16.50;14.00;;;;;;;20.01;100.00;93973.47;5050186;28;20228;-66
2022/08/23 01:31:14;;;;;;;18.27;14.30;;;;;;;19.80;100.00;93969.38;5050771;28;20195;-67
2022/08/23 01:33:41;;;;;;;20.63;13.60;;;;;;;19.85;100.00;93961.84;5069337;22;20222;-67
2022/08/23 01:36:12;;;;;;;23.67;13.75;;;;;;;19.96;100.00;93958.59;5055091;22;20225;-68
2022/08/23 01:38:38;;;;;;;18.35;12.77;;;;;;;19.92;100.00;93966.94;5050364;28;20198;-69
2022/08/23 01:41:05;;;;;;;16.92;12.65;;;;;;;19.73;100.00;93957.50;5032440;28;20204;-67
2022/08/23 01:43:32;;;;;;;18.67;12.25;;;;;;;19.83;100.00;93970.75;5056123;22;20201;-70
2022/08/23 01:46:05;;;;;;;14.80;12.05;;;;;;;19.75;100.00;93971.78;5050185;28;20225;-67
2022/08/23 01:48:30;;;;;;;17.30;12.77;;;;;;;19.83;100.00;93973.34;5032208;28;20237;-68
2022/08/23 01:50:56;;;;;;;16.98;12.88;;;;;;;19.59;100.00;93961.91;5031986;28;20236;-67
2022/08/23 01:53:22;;;;;;;20.35;13.30;;;;;;;19.68;100.00;93971.00;5031855;28;20235;-68
2022/08/23 01:55:47;;;;;;;14.27;11.80;;;;;;;19.77;100.00;93969.00;5032028;28;20514;-66
2022/08/23 01:58:13;;;;;;;21.00;13.02;;;;;;;19.91;100.00;93971.34;5050186;28;20199;-68
2022/08/23 02:00:43;;;;;;;15.07;12.60;;;;;;;19.89;100.00;93973.34;5038781;23;20214;-65
2022/08/23 02:03:11;;;;;;;15.55;12.52;;;;;;;19.77;100.00;93954.31;5032172;28;20284;-68
2022/08/23 02:05:38;;;;;;;16.90;13.57;;;;;;;19.76;100.00;93964.81;5049951;28;20195;-66
2022/08/23 02:10:50;;;;;;;22.45;16.05;;;;;;;19.78;100.00;93966.19;5050103;28;20216;-68
2022/08/23 02:13:17;;;;;;;19.92;14.57;;;;;;;19.68;100.00;93968.41;5049856;28;20193;-67
2022/08/23 02:15:44;;;;;;;21.40;14.75;;;;;;;19.66;100.00;93975.56;5060491;22;20217;-68
2022/08/23 02:18:10;;;;;;;23.67;19.45;;;;;;;19.58;100.00;93964.66;5048977;28;20193;-68
2022/08/23 02:20:36;;;;;;;27.23;21.08;;;;;;;19.49;100.00;93966.66;5049965;28;20300;-63
2022/08/23 02:23:02;;;;;;;29.27;23.52;;;;;;;19.62;100.00;93973.56;5031566;28;20655;-62
2022/08/23 02:25:28;;;;;;;25.38;20.75;;;;;;;19.60;100.00;93967.81;5049795;28;20695;-60
2022/08/23 02:27:53;;;;;;;22.92;18.63;;;;;;;19.56;100.00;93957.13;5049784;28;20217;-61
2022/08/23 02:30:19;;;;;;;20.38;16.38;;;;;;;19.51;100.00;93953.56;5049693;28;20741;-62
2022/08/23 02:32:44;;;;;;;19.75;15.88;;;;;;;19.47;100.00;93954.97;5049672;28;20729;-61
2022/08/23 02:35:11;;;;;;;23.63;18.27;;;;;;;19.45;100.00;93956.94;5049524;28;20194;-62
2022/08/23 02:37:37;;;;;;;24.80;18.15;;;;;;;19.45;100.00;93968.06;5047877;28;20205;-61
2022/08/23 02:40:04;;;;;;;17.02;13.68;;;;;;;19.47;100.00;93968.66;5055973;22;20700;-62
2022/08/23 02:42:30;;;;;;;13.95;12.25;;;;;;;19.39;100.00;93968.88;5053378;28;20239;-62
2022/08/23 02:44:55;;;;;;;13.70;10.45;;;;;;;19.45;100.00;93986.13;5053084;28;20695;-61
2022/08/23 02:47:22;;;;;;;12.93;9.98;;;;;;;19.50;100.00;93983.72;5053088;28;20247;-62
2022/08/23 02:49:48;;;;;;;14.98;10.68;;;;;;;19.54;100.00;93982.31;5058836;22;20217;-64
2022/08/23 02:52:13;;;;;;;12.02;9.82;;;;;;;19.63;100.00;93975.97;5059343;22;20218;-64
2022/08/23 02:54:39;;;;;;;12.73;9.48;;;;;;;19.71;100.00;93980.13;5052957;28;20659;-64
2022/08/23 02:57:05;;;;;;;10.88;9.27;;;;;;;19.71;100.00;93987.84;5052968;28;20659;-64
2022/08/23 02:59:30;;;;;;;12.57;9.60;;;;;;;19.74;100.00;93990.81;5053155;28;20644;-64
2022/08/23 03:01:56;;;;;;;11.90;7.65;;;;;;;19.70;100.00;93989.63;5053028;28;20259;-64
2022/08/23 03:04:21;;;;;;;8.80;7.15;;;;;;;19.66;100.00;93983.28;5034721;28;20772;-64
2022/08/23 03:06:48;;;;;;;10.05;8.20;;;;;;;19.54;100.00;93969.44;5052757;28;20652;-63
2022/08/23 03:09:14;;;;;;;8.88;7.97;;;;;;;19.56;100.00;93964.88;5034350;28;20229;-64
2022/08/23 03:11:44;;;;;;;10.80;7.93;;;;;;;19.71;100.00;93970.59;5034645;28;20639;-64
2022/08/23 03:14:12;;;;;;;9.30;7.70;;;;;;;19.64;100.00;93956.09;5057144;22;20241;-63
2022/08/23 03:16:38;;;;;;;12.43;8.35;;;;;;;19.51;100.00;93951.78;5032847;28;20182;-65
2022/08/23 03:19:03;;;;;;;7.47;6.75;;;;;;;19.67;100.00;93986.66;5049018;22;20221;-65
2022/08/23 03:21:30;;;;;;;9.57;6.25;;;;;;;19.76;100.00;93993.19;5034629;28;20194;-62
2022/08/23 03:23:56;;;;;;;7.88;6.38;;;;;;;19.72;100.00;93981.69;5052546;28;20215;-60
2022/08/23 03:26:21;;;;;;;8.90;6.60;;;;;;;19.69;100.00;93966.63;5052479;28;20185;-61
2022/08/23 03:28:47;;;;;;;8.18;6.68;;;;;;;19.69;100.00;93964.06;5052222;28;20703;-61
2022/08/23 03:31:14;;;;;;;6.85;6.15;;;;;;;19.75;100.00;93992.41;5034391;28;20193;-61
2022/08/23 03:33:41;;;;;;;7.93;5.97;;;;;;;19.79;100.00;93987.63;5052338;28;20233;-61
2022/08/23 03:36:09;;;;;;;8.55;5.95;;;;;;;19.82;100.00;93985.44;5052192;28;20239;-61
2022/08/23 03:38:36;;;;;;;9.25;5.85;;;;;;;19.84;100.00;93978.28;5058581;22;20395;-60
2022/08/23 03:41:02;;;;;;;6.75;5.78;;;;;;;19.82;100.00;93980.28;5052412;28;20707;-60
2022/08/23 03:43:28;;;;;;;7.43;5.82;;;;;;;19.85;100.00;93981.66;5052257;28;20292;-61
2022/08/23 03:45:54;;;;;;;8.52;6.40;;;;;;;19.83;100.00;93986.25;5052442;28;20193;-63
2022/08/23 03:48:20;;;;;;;6.95;6.07;;;;;;;19.90;100.00;93992.16;5034162;28;20549;-61
2022/08/23 03:50:46;;;;;;;8.55;6.38;;;;;;;20.14;100.00;94008.78;5052268;28;20240;-62
2022/08/23 03:53:11;;;;;;;9.65;6.32;;;;;;;19.95;100.00;93987.19;5050465;28;20197;-61
2022/08/23 03:55:45;;;;;;;14.25;9.02;;;;;;;19.99;100.00;93978.06;5058038;22;20715;-61
2022/08/23 03:58:11;;;;;;;10.05;8.57;;;;;;;19.90;100.00;93976.69;5052206;28;20304;-61
2022/08/23 04:00:38;;;;;;;9.15;8.25;;;;;;;19.98;100.00;93991.94;5051958;28;20245;-61
2022/08/23 04:03:03;;;;;;;9.93;8.80;;;;;;;19.96;100.00;93992.16;5052134;28;20209;-61
2022/08/23 04:05:30;;;;;;;12.38;8.48;;;;;;;19.90;100.00;93999.91;5051889;28;20731;-61
2022/08/23 04:07:55;;;;;;;10.15;7.82;;;;;;;19.78;100.00;93992.00;5051169;28;20210;-64
2022/08/23 04:10:21;;;;;;;10.30;8.45;;;;;;;19.91;100.00;94002.31;5052511;28;20205;-64
2022/08/23 04:12:46;;;;;;;12.98;8.68;;;;;;;19.77;100.00;93997.38;5052924;28;20324;-64
2022/08/23 04:15:12;;;;;;;9.10;7.30;;;;;;;19.66;100.00;94006.50;5052401;28;20205;-63
2022/08/23 04:17:38;;;;;;;11.13;7.00;;;;;;;19.77;100.00;94015.41;5058799;22;20217;-60
2022/08/23 04:20:05;;;;;;;7.15;6.40;;;;;;;19.68;100.00;94016.63;5052217;28;20209;-67
2022/08/23 04:22:30;;;;;;;8.27;7.05;;;;;;;19.76;100.00;94014.63;5052098;28;20186;-61
2022/08/23 04:24:56;;;;;;;6.57;5.95;;;;;;;19.76;100.00;94024.94;5057924;22;20218;-64
2022/08/23 04:27:22;;;;;;;7.80;6.43;;;;;;;19.74;100.00;94018.38;5052216;28;20208;-66
2022/08/23 04:29:47;;;;;;;9.63;6.85;;;;;;;19.76;100.00;94017.19;5052008;28;20300;-61
2022/08/23 04:32:14;;;;;;;9.88;6.25;;;;;;;19.99;100.00;94004.66;5052761;28;20234;-62
2022/08/23 04:34:41;;;;;;;8.95;6.72;;;;;;;20.50;100.00;94006.50;5052435;28;20220;-68
2022/08/23 04:37:08;;;;;;;10.18;6.15;;;;;;;20.66;100.00;94032.66;5031275;22;20316;-63
2022/08/23 04:42:16;;;;;;;8.32;6.07;;;;;;;20.59;100.00;94051.72;5032130;28;20276;-63
2022/08/23 04:42:19;;;;;;;7.47;5.40;;;;;;;20.68;100.00;94084.09;5032564;28;20561;-61
2022/08/23 04:44:44;;;;;;;12.90;6.13;;;;;;;20.42;100.00;94066.13;5032253;28;20702;-63
2022/08/23 04:47:10;;;;;;;10.48;5.80;;;;;;;20.11;100.00;94056.44;5031889;28;20198;-67
2022/08/23 04:49:35;;;;;;;6.50;5.60;;;;;;;20.16;100.00;94063.59;5032193;28;20202;-67
2022/08/23 04:52:05;;;;;;;8.10;5.47;;;;;;;20.09;100.00;94076.50;5032285;28;20603;-67
2022/08/23 04:54:30;;;;;;;5.30;4.65;;;;;;;19.81;100.00;94045.78;5013910;28;20312;-66
2022/08/23 04:56:55;;;;;;;7.35;5.03;;;;;;;19.66;100.00;94045.19;5032053;28;20629;-63
2022/08/23 04:59:21;;;;;;;6.22;4.93;;;;;;;19.72;100.00;94049.53;5031815;28;20210;-61
2022/08/23 05:01:48;;;;;;;7.32;5.38;;;;;;;20.04;100.00;94071.13;5013580;28;20198;-64
2022/08/23 05:04:14;;;;;;;4.72;4.32;;;;;;;19.89;100.00;94057.66;5030792;28;20699;-61
2022/08/23 05:06:40;;;;;;;7.13;5.18;;;;;;;19.68;100.00;94068.19;5014222;28;20201;-61
2022/08/23 05:09:05;;;;;;;5.60;4.55;;;;;;;19.79;100.00;94067.59;5031051;28;20656;-62
2022/08/23 05:11:31;;;;;;;5.30;4.55;;;;;;;19.89;100.00;94062.84;5031608;28;20194;-63
2022/08/23 05:13:56;;;;;;;6.80;4.75;;;;;;;19.98;100.00;94083.06;5031866;28;20218;-63
2022/08/23 05:16:22;;;;;;;5.68;4.95;;;;;;;20.27;100.00;94096.53;5014119;28;20288;-61
2022/08/23 05:18:47;;;;;;;7.38;4.75;;;;;;;20.18;100.00;94095.91;5013593;28;20213;-61
2022/08/23 05:21:22;;;;;;;7.50;4.55;;;;;;;20.30;100.00;94114.22;5031125;28;20305;-64
2022/08/23 05:23:48;;;;;;;7.80;5.55;;;;;;;20.45;100.00;94122.50;5013434;28;20257;-62
2022/08/23 05:26:13;;;;;;;6.47;5.00;;;;;;;20.19;100.00;94082.06;5031173;28;20279;-66
2022/08/23 05:28:44;;;;;;;10.85;5.88;;;;;;;19.86;100.00;94070.97;5039976;22;20218;-64
2022/08/23 05:31:17;;;;;;;9.82;6.38;;;;;;;19.94;100.00;94078.50;5051377;28;20186;-62
2022/08/23 05:33:43;;;;;;;7.85;6.10;;;;;;;19.73;100.00;94071.78;5051350;28;20287;-62
2022/08/23 05:36:11;;;;;;;11.32;6.47;;;;;;;19.68;100.00;94061.25;5050347;28;20197;-62
2022/08/23 05:38:38;;;;;;;9.18;6.93;;;;;;;19.52;100.00;94059.09;5057270;22;20199;-62
2022/08/23 05:41:04;;;;;;;11.50;7.85;;;;;;;19.50;100.00;94058.47;5051327;28;20182;-66
2022/08/23 05:43:30;;;;;;;7.82;6.78;;;;;;;19.38;100.00;94051.53;5032975;28;20213;-65
2022/08/23 05:46:03;;;;;;;11.25;7.55;;;;;;;19.23;100.00;94042.19;5050865;28;20194;-63
2022/08/23 05:48:30;;;;;;;9.15;7.20;;;;;;;19.19;100.00;94047.91;5032883;28;20217;-63
2022/08/23 05:50:56;;;;;;;12.23;7.25;;;;;;;19.22;100.00;94058.66;5050794;28;20185;-65
2022/08/23 05:53:22;;;;;;;8.70;7.43;;;;;;;19.36;100.00;94056.09;5033073;28;20193;-63
2022/08/23 05:55:49;;;;;;;14.60;8.50;;;;;;;19.38;100.00;94072.97;5050913;28;20248;-62
2022/08/23 05:58:14;;;;;;;10.88;7.93;;;;;;;19.44;100.00;94077.31;5056102;22;20299;-64
2022/08/23 06:00:39;;;;;;;10.00;7.78;;;;;;;19.63;100.00;94086.88;5030875;28;20269;-64
2022/08/23 06:03:05;;;;;;;8.07;7.15;;;;;;;19.57;100.00;94082.50;5030844;28;20214;-62
2022/08/23 06:05:30;;;;;;;9.93;8.25;;;;;;;19.68;100.00;94084.47;5013125;28;20265;-62
2022/08/23 06:07:58;;;;;;;15.63;8.68;;;;;;;20.05;100.00;94070.94;5030779;28;20690;-62
2022/08/23 06:10:24;;;;;;;13.30;8.55;;;;;;;20.97;100.00;94059.53;5030995;28;20596;-61
2022/08/23 06:12:49;;;;;;;11.05;7.40;;;;;;;21.66;100.00;94073.19;5030982;28;20578;-61
2022/08/23 06:15:15;;;;;;;9.88;7.13;;;;;;;22.14;100.00;94104.47;5031818;28;20261;-61
2022/08/23 06:17:40;;;;;;;9.75;6.15;;;;;;;22.52;100.00;94146.53;5034291;28;20604;-62
2022/08/23 06:20:07;;;;;;;7.72;6.10;;;;;;;22.89;100.00;94168.06;5034347;28;20216;-61
2022/08/23 06:22:32;;;;;;;7.10;5.07;;;;;;;23.16;100.00;94216.84;5016467;28;20668;-60
2022/08/23 06:24:58;;;;;;;8.20;5.72;;;;;;;23.46;100.00;94205.72;5034086;28;20260;-64
2022/08/23 06:27:23;;;;;;;5.80;5.00;;;;;;;23.70;100.00;94228.97;5033943;28;20284;-65
2022/08/23 06:29:49;;;;;;;6.57;4.88;;;;;;;23.86;100.00;94238.75;5016684;28;20315;-64
2022/08/23 06:32:14;;;;;;;5.40;4.55;;;;;;;23.80;100.00;94263.00;5034116;28;20182;-64
2022/08/23 06:34:40;;;;;;;5.95;4.93;;;;;;;23.96;100.00;94249.38;5016281;28;20213;-64
2022/08/23 06:37:13;;;;;;;10.55;5.28;;;;;;;23.92;100.00;94283.81;5033947;28;20208;-66
2022/08/23 06:39:39;;;;;;;6.38;4.82;;;;;;;24.17;100.00;94268.91;5034283;28;20248;-61
2022/08/23 06:42:06;;;;;;;6.28;5.05;;;;;;;24.33;100.00;94272.66;5033850;28;20210;-62
2022/08/23 06:44:34;;;;;;;5.85;4.72;;;;;;;24.45;100.00;94313.25;5033985;28;20205;-65
2022/08/23 06:47:00;;;;;;;5.47;4.25;;;;;;;24.41;100.00;94348.50;5016147;28;20200;-65
2022/08/23 06:49:27;;;;;;;5.07;4.57;;;;;;;24.26;100.00;94308.34;5033509;28;20218;-64
2022/08/23 06:51:55;;;;;;;5.22;3.75;;;;;;;24.38;100.00;94286.56;5033930;28;20198;-61
2022/08/23 06:54:30;;;;;;;5.47;4.40;;;;;;;24.16;100.00;94272.50;5034261;28;20214;-62
2022/08/23 06:56:57;;;;;;;7.13;4.80;;;;;;;24.46;100.00;94290.66;5015723;28;20233;-62
2022/08/23 06:59:23;;;;;;;6.07;4.47;;;;;;;24.36;100.00;94278.19;5017182;23;20262;-63
2022/08/23 07:02:04;;;;;;;5.72;5.00;;;;;;;24.36;100.00;94303.41;4995824;28;20222;-62
2022/08/23 07:04:36;;;;;;;6.47;5.45;;;;;;;24.44;100.00;94297.91;5014137;28;20572;-62
2022/08/23 07:07:03;;;;;;;7.65;5.13;;;;;;;24.38;100.00;94283.19;5013840;28;20199;-61
2022/08/23 07:09:30;;;;;;;9.48;7.43;;;;;;;24.31;100.00;94322.25;5013811;28;20218;-64
2022/08/23 07:11:56;;;;;;;7.10;5.20;;;;;;;24.24;100.00;94258.44;4996469;28;20186;-66
2022/08/23 07:14:23;;;;;;;5.93;5.30;;;;;;;24.38;100.00;94276.16;5014272;28;20719;-65
2022/08/23 07:16:55;;;;;;;6.80;5.50;;;;;;;24.55;100.00;94287.50;4996025;28;20726;-64
2022/08/23 07:19:34;;;;;;;5.80;5.30;;;;;;;24.57;100.00;94280.28;5013336;28;20253;-65
2022/08/23 07:22:01;;;;;;;6.22;5.40;;;;;;;24.52;100.00;94268.97;5013870;28;20261;-64
2022/08/23 07:24:27;;;;;;;8.57;6.70;;;;;;;24.41;100.00;94274.94;4995887;28;20229;-63
2022/08/23 07:26:53;;;;;;;10.07;5.68;;;;;;;24.37;100.00;94248.63;5012555;28;20195;-64
2022/08/23 07:29:20;;;;;;;7.25;6.13;;;;;;;24.49;100.00;94246.03;5013196;28;20767;-64
2022/08/23 07:31:49;;;;;;;9.95;6.78;;;;;;;24.40;100.00;94289.72;5013662;28;20202;-64
2022/08/23 07:34:15;;;;;;;10.57;8.20;;;;;;;23.95;100.00;94270.38;4996060;28;20210;-64
2022/08/23 07:36:43;;;;;;;10.77;6.70;;;;;;;24.19;100.00;94261.69;4995523;28;20202;-64
2022/08/23 07:39:10;;;;;;;9.07;6.72;;;;;;;24.50;100.00;94252.81;5013099;28;20235;-65
2022/08/23 07:41:37;;;;;;;17.92;7.30;;;;;;;24.65;100.00;94292.16;4995820;28;20225;-66
2022/08/23 07:44:04;;;;;;;10.02;7.82;;;;;;;24.38;100.00;94286.56;5013211;28;20203;-66
2022/08/23 07:46:31;;;;;;;14.70;8.50;;;;;;;23.77;100.00;94227.09;5013101;28;20183;-64
2022/08/23 07:49:02;;;;;;;11.52;8.60;;;;;;;23.70;100.00;94197.81;4995246;28;20221;-64
2022/08/23 07:51:30;;;;;;;10.93;8.75;;;;;;;24.04;100.00;94248.31;5013420;28;20224;-64
2022/08/23 07:53:56;;;;;;;8.98;7.15;;;;;;;24.20;100.00;94237.28;5012990;28;20225;-64
2022/08/23 07:56:22;;;;;;;10.27;8.15;;;;;;;24.36;100.00;94267.03;5012971;28;20209;-64
2022/08/23 07:58:48;;;;;;;10.75;7.25;;;;;;;24.44;100.00;94258.91;5012702;28;20207;-64
2022/08/23 08:01:21;;;;;;;10.18;8.57;;;;;;;24.51;100.00;94285.56;5012744;28;20203;-65
2022/08/23 08:03:49;;;;;;;10.10;8.88;;;;;;;24.58;100.00;94294.88;5012832;28;20218;-63
2022/08/23 08:06:39;;;;;;;13.55;9.55;;;;;;;24.56;100.00;94294.31;5013086;28;20191;-64
2022/08/23 08:09:06;;;;;;;12.35;10.77;;;;;;;24.57;100.00;94329.69;5012269;28;20234;-64
2022/08/23 08:11:33;;;;;;;10.25;9.15;;;;;;;24.67;100.00;94297.91;5012932;28;20221;-65
2022/08/23 08:14:00;;;;;;;10.82;9.13;;;;;;;24.71;100.00;94317.25;5012609;28;20199;-65
2022/08/23 08:16:29;;;;;;;10.13;8.60;;;;;;;24.84;100.00;94323.09;4995077;28;20203;-65
2022/08/23 08:19:07;;;;;;;12.32;9.00;;;;;;;25.00;100.00;94332.03;5012563;28;20226;-67
2022/08/23 08:21:33;;;;;;;13.27;9.65;;;;;;;25.08;98.25;94377.72;4994755;28;20699;-62
2022/08/23 08:23:59;;;;;;;10.35;8.70;;;;;;;24.99;99.98;94341.63;5012721;28;20586;-65
2022/08/23 08:26:26;;;;;;;11.38;8.20;;;;;;;24.99;100.00;94333.81;5012416;28;20717;-66
2022/08/23 08:28:54;;;;;;;9.52;7.93;;;;;;;24.93;90.46;94368.53;4994747;28;20222;-62
2022/08/23 08:31:20;;;;;;;10.70;8.35;;;;;;;24.59;92.08;94313.84;5012743;28;20191;-62
2022/08/23 08:33:46;;;;;;;13.80;8.85;;;;;;;24.91;90.03;94333.34;5012482;28;20253;-63
2022/08/23 08:36:48;;;;;;;11.55;8.63;;;;;;;25.06;88.35;94354.53;5012335;28;20277;-62
2022/08/23 08:39:19;;;;;;;11.68;8.32;;;;;;;25.22;87.59;94353.06;4913911;29;20214;-62
2022/08/23 08:42:06;;;;;;;11.50;8.15;;;;;;;24.93;88.11;94339.94;4996298;28;20206;-61
2022/08/23 08:44:53;;;;;;;12.38;8.27;;;;;;;24.75;87.57;94345.22;5012257;28;20215;-62
2022/08/23 08:47:18;;;;;;;13.48;9.32;;;;;;;24.85;87.00;94355.88;5011995;28;20253;-62
2022/08/23 08:49:44;;;;;;;10.60;9.50;;;;;;;24.75;86.92;94350.44;4994504;28;20688;-62
2022/08/23 08:52:17;;;;;;;14.07;10.63;;;;;;;24.34;87.98;94327.00;5012244;28;20244;-61
2022/08/23 08:54:46;;;;;;;15.32;11.57;;;;;;;24.13;90.38;94288.56;5012132;28;20242;-62
2022/08/23 08:57:18;;;;;;;12.60;9.85;;;;;;;24.03;91.31;94250.13;4994692;28;20270;-61
2022/08/23 08:59:52;;;;;;;13.23;10.75;;;;;;;24.08;91.67;94244.25;5011866;28;20215;-65
2022/08/23 09:02:21;;;;;;;12.60;10.43;;;;;;;23.98;93.41;94215.38;5012066;28;20175;-63
2022/08/23 09:04:47;;;;;;;11.77;10.15;;;;;;;24.20;91.80;94242.47;5011918;28;20222;-61
2022/08/23 09:07:35;;;;;;;18.15;11.45;;;;;;;24.32;90.82;94248.47;4994235;28;20190;-61
2022/08/23 09:10:14;;;;;;;15.55;11.13;;;;;;;24.21;89.99;94246.66;4994102;28;20708;-63
2022/08/23 09:12:58;;;;;;;11.95;10.50;;;;;;;24.23;89.59;94254.22;5011972;28;20191;-63
2022/08/23 09:15:29;;;;;;;15.90;11.65;;;;;;;23.61;93.28;94187.97;5012067;28;20580;-62
2022/08/23 09:18:23;;;;;;;13.85;11.82;;;;;;;23.84;92.49;94217.41;5011738;28;20232;-64
2022/08/23 09:20:52;;;;;;;12.73;9.95;;;;;;;24.26;96.04;94148.03;5011935;28;20274;-64
2022/08/23 09:23:39;;;;;;;13.20;9.98;;;;;;;24.48;92.46;94208.84;5011741;28;20186;-62
2022/08/23 09:26:25;;;;;;;11.75;10.02;;;;;;;24.99;90.16;94260.97;5011610;28;20190;-63
2022/08/23 09:29:20;;;;;;;14.52;11.55;;;;;;;25.29;86.91;94318.09;5011487;28;20207;-65
2022/08/23 09:32:01;;;;;;;12.75;10.32;;;;;;;25.57;84.71;94359.84;5004041;28;20207;-63
2022/08/23 09:34:29;;;;;;;14.23;11.55;;;;;;;25.58;85.68;94332.00;5011587;28;20210;-62
2022/08/23 09:37:23;;;;;;;13.38;10.35;;;;;;;25.49;86.18;94315.94;5011966;28;20202;-65
2022/08/23 09:40:12;;;;;;;11.77;10.48;;;;;;;25.75;84.08;94364.13;5008433;28;20314;-62
2022/08/23 09:42:39;;;;;;;11.70;10.35;;;;;;;25.65;84.89;94330.84;4993839;28;20731;-60
2022/08/23 09:45:24;;;;;;;15.38;11.57;;;;;;;25.61;83.51;94365.41;5011369;28;20289;-62
2022/08/23 09:47:49;;;;;;;11.27;10.07;;;;;;;25.84;84.01;94343.75;5011377;28;20202;-63
2022/08/23 09:50:24;;;;;;;12.57;10.27;;;;;;;25.96;85.31;94316.59;5010527;28;20302;-62
2022/08/23 09:52:54;;;;;;;12.18;9.98;;;;;;;26.21;84.84;94327.53;5011347;28;20239;-65
2022/08/23 09:55:47;;;;;;;13.15;9.82;;;;;;;26.57;85.80;94315.88;4993962;28;20585;-61
2022/08/23 09:58:26;;;;;;;12.48;9.98;;;;;;;26.81;81.16;94407.88;5010718;28;20209;-62
2022/08/23 10:01:08;;;;;;;12.60;9.48;;;;;;;26.83;80.67;94401.41;5011632;28;20551;-64
2022/08/23 10:03:33;;;;;;;12.13;9.27;;;;;;;26.88;80.67;94392.88;4993344;28;20202;-63
2022/08/23 10:06:00;;;;;;;11.95;9.52;;;;;;;27.27;79.91;94397.16;5011233;28;20699;-62
2022/08/23 10:08:37;;;;;;;12.65;9.73;;;;;;;27.60;77.17;94415.41;5010910;28;20704;-61
2022/08/23 10:11:02;;;;;;;11.90;10.32;;;;;;;28.10;74.64;94410.88;4993433;28;20199;-63
2022/08/23 10:13:28;;;;;;;11.07;9.48;;;;;;;27.74;73.15;94434.16;5011007;28;20592;-62
2022/08/23 10:16:12;;;;;;;10.77;9.77;;;;;;;27.71;72.69;94426.81;5010874;28;20191;-62
2022/08/23 10:19:19;;;;;;;11.60;9.25;;;;;;;27.74;69.76;94471.53;4993241;28;20210;-62
2022/08/23 10:21:50;;;;;;;12.75;9.50;;;;;;;27.58;71.86;94396.59;5010686;28;20214;-63
2022/08/23 10:24:50;;;;;;;10.25;9.25;;;;;;;27.59;69.10;94449.63;5010907;28;20233;-62
2022/08/23 10:31:14;;;;;;;13.52;10.45;;;;;;;27.33;72.08;94380.53;4969930;28;20225;-63
2022/08/23 10:33:46;;;;;;;12.07;10.05;;;;;;;27.60;70.33;94397.13;5010912;28;20211;-61
2022/08/23 10:36:30;;;;;;;17.40;10.38;;;;;;;27.77;71.29;94370.97;4993122;28;20226;-63
2022/08/23 10:39:22;;;;;;;13.65;10.57;;;;;;;27.60;73.02;94334.44;5026869;23;20232;-62
2022/08/23 10:42:05;;;;;;;13.13;10.45;;;;;;;27.96;70.73;94386.13;5042770;28;20209;-61
2022/08/23 10:44:37;;;;;;;14.45;10.73;;;;;;;27.82;70.78;94384.88;5050167;28;20210;-64
2022/08/23 10:47:13;;;;;;;11.10;9.90;;;;;;;27.73;71.01;94360.22;5015997;28;20185;-61
2022/08/23 10:49:41;;;;;;;13.68;9.27;;;;;;;27.85;66.29;94468.06;5050231;28;20232;-61
2022/08/23 10:52:12;;;;;;;14.98;9.68;;;;;;;27.66;68.58;94406.63;5050045;28;20705;-62
2022/08/23 10:54:58;;;;;;;13.13;9.48;;;;;;;27.13;69.84;94369.81;5050343;28;20263;-63
2022/08/23 10:57:31;;;;;;;12.18;9.32;;;;;;;27.22;71.73;94347.47;5032019;28;20675;-63
2022/08/23 11:00:12;;;;;;;13.40;10.30;;;;;;;27.30;73.03;94310.50;5050168;28;20289;-60
2022/08/23 11:02:50;;;;;;;11.52;9.90;;;;;;;27.18;71.28;94344.56;5051526;28;20193;-61
2022/08/23 11:05:27;;;;;;;11.82;9.90;;;;;;;27.18;73.32;94291.53;5052983;28;20699;-61
2022/08/23 11:08:07;;;;;;;10.55;9.52;;;;;;;27.14;72.20;94329.59;5052650;28;20695;-60
2022/08/23 11:10:46;;;;;;;12.60;9.00;;;;;;;27.23;70.54;94362.13;5052986;28;20234;-63
2022/08/23 11:13:12;;;;;;;13.60;9.60;;;;;;;27.05;73.35;94284.84;5035650;28;20638;-62
2022/08/23 11:15:52;;;;;;;11.20;9.45;;;;;;;27.26;69.48;94378.09;5035556;28;20185;-62
2022/08/23 11:18:46;;;;;;;10.55;9.27;;;;;;;27.09;70.32;94366.84;5059694;22;20237;-64
2022/08/23 11:21:17;;;;;;;10.32;9.15;;;;;;;26.91;71.11;94348.03;5053252;28;20652;-64
2022/08/23 11:24:13;;;;;;;10.52;8.98;;;;;;;27.31;68.04;94406.09;5052996;28;20263;-61
2022/08/23 11:26:40;;;;;;;10.98;9.38;;;;;;;26.94;70.79;94334.53;5053341;28;20377;-63
2022/08/23 11:29:05;;;;;;;10.73;9.30;;;;;;;27.19;68.47;94394.94;5034967;28;20225;-63
2022/08/23 11:31:43;;;;;;;12.02;9.07;;;;;;;27.11;68.28;94400.56;5052813;28;20551;-62
2022/08/23 11:34:19;;;;;;;11.30;8.88;;;;;;;27.18;68.51;94388.13;5053020;28;20721;-62
2022/08/23 11:37:19;;;;;;;9.63;8.60;;;;;;;27.30;66.18;94428.81;5053204;28;20189;-64
2022/08/23 11:39:57;;;;;;;12.35;8.73;;;;;;;27.38;68.46;94368.38;5052803;28;20568;-63
2022/08/23 11:42:25;;;;;;;12.85;9.07;;;;;;;27.37;69.45;94351.09;5052985;28;20186;-63
2022/08/23 11:44:52;;;;;;;10.70;9.23;;;;;;;27.27;66.83;94400.53;5058860;22;20652;-63
2022/08/23 11:47:28;;;;;;;9.85;8.88;;;;;;;27.04;67.65;94374.63;5052918;28;20194;-62